Time;durP1;ratioP1;P1;durP2;ratioP2;P2;SDS_P1;SDS_P2;PMS_P1;PMS_P2;Temp;Humidity;BMP_temperature;BMP_pressure;BME280_temperature;BME280_humidity;BME280_pressure;Samples;Min_cycle;Max_cycle;Signal;HPM_P1;HPM_P2
2023/02/23 00:01:44;;;;;;;;;;;;;;;2.48;77.96;100356.66;106558;1273;22515;-56
2023/02/23 00:04:13;;;;;;;;;;;;;;;2.45;78.09;100354.65;106704;1272;25486;-57
2023/02/23 00:06:43;;;;;;;;;;;;;;;2.44;78.19;100353.50;106642;1278;24207;-56
2023/02/23 00:09:21;;;;;;;;;;;;;;;2.42;78.14;100349.98;106627;1278;25277;-55
2023/02/23 00:11:51;;;;;;;;;;;;;;;2.41;78.06;100351.98;106603;1274;24143;-57
2023/02/23 00:14:23;;;;;;;;;;;;;;;2.39;78.19;100346.34;106593;1272;25518;-54
2023/02/23 00:16:52;;;;;;;;;;;;;;;2.37;78.09;100349.67;106745;1278;23949;-56
2023/02/23 00:19:23;;;;;;;;;;;;;;;2.34;78.06;100347.69;106567;1278;22674;-55
2023/02/23 00:21:53;;;;;;;;;;;;;;;2.31;78.19;100343.34;106544;1278;22518;-57
2023/02/23 00:24:25;;;;;;;;;;;;;;;2.28;78.27;100344.73;106618;1278;22511;-59
2023/02/23 00:26:55;;;;;;;;;;;;;;;2.25;78.23;100343.98;106663;1265;22522;-57
2023/02/23 00:29:24;;;;;;;;;;;;;;;2.23;78.31;100342.07;106688;1263;24325;-56
2023/02/23 00:31:54;;;;;;;;;;;;;;;2.22;78.39;100344.46;106650;1274;22525;-58
2023/02/23 00:34:24;;;;;;;;;;;;;;;2.20;78.25;100344.95;106571;1272;26687;-58
2023/02/23 00:36:54;;;;;;;;;;;;;;;2.18;78.40;100344.27;106608;1274;24010;-59
2023/02/23 00:39:27;;;;;;;;;;;;;;;2.15;78.51;100342.44;106577;1272;22511;-57
2023/02/23 00:42:01;;;;;;;;;;;;;;;2.13;78.49;100335.77;106624;1274;22523;-56
2023/02/23 00:44:32;;;;;;;;;;;;;;;2.10;78.60;100335.52;106722;1271;22521;-58
2023/02/23 00:47:02;;;;;;;;;;;;;;;2.06;78.79;100330.00;106675;1274;23022;-56
2023/02/23 00:49:31;;;;;;;;;;;;;;;2.07;79.01;100330.55;106477;1278;22534;-58
2023/02/23 00:52:00;;;;;;;;;;;;;;;2.06;78.83;100331.13;106741;1274;22539;-56
2023/02/23 00:54:29;;;;;;;;;;;;;;;2.00;78.74;100328.61;106647;1278;24216;-57
2023/02/23 00:56:58;;;;;;;;;;;;;;;1.96;78.87;100330.73;106550;1274;22530;-57
2023/02/23 00:59:29;;;;;;;;;;;;;;;1.94;78.78;100330.21;106569;1271;24465;-57
2023/02/23 01:01:58;;;;;;;;;;;;;;;1.90;78.75;100328.15;106670;1278;22514;-56
2023/02/23 01:04:28;;;;;;;;;;;;;;;1.88;78.87;100328.73;106752;1272;22520;-57
2023/02/23 01:06:57;;;;;;;;;;;;;;;1.87;78.88;100324.73;106777;1278;23913;-54
2023/02/23 01:09:28;;;;;;;;;;;;;;;1.84;78.92;100326.13;106580;1278;24061;-58
2023/02/23 01:12:00;;;;;;;;;;;;;;;1.82;79.05;100324.42;106719;1274;22508;-56
2023/02/23 01:14:29;;;;;;;;;;;;;;;1.78;79.06;100323.06;106656;1274;22515;-57
2023/02/23 01:16:59;;;;;;;;;;;;;;;1.77;79.31;100321.20;106623;1278;24602;-57
2023/02/23 01:19:28;;;;;;;;;;;;;;;1.77;79.23;100317.36;106587;1264;22616;-57
2023/02/23 01:21:57;;;;;;;;;;;;;;;1.75;79.14;100316.46;106847;1278;24187;-56
2023/02/23 01:24:26;;;;;;;;;;;;;;;1.72;79.24;100320.73;106797;1272;22474;-57
2023/02/23 01:26:56;;;;;;;;;;;;;;;1.71;79.41;100321.14;106570;1275;22522;-55
2023/02/23 01:29:25;;;;;;;;;;;;;;;1.69;79.33;100323.93;106682;1273;25396;-58
2023/02/23 01:31:54;;;;;;;;;;;;;;;1.68;79.36;100318.13;106549;1271;24220;-57
2023/02/23 01:34:23;;;;;;;;;;;;;;;1.66;79.36;100315.70;106620;1278;24191;-58
2023/02/23 01:36:53;;;;;;;;;;;;;;;1.65;79.47;100315.40;106574;1278;22514;-58
2023/02/23 01:39:22;;;;;;;;;;;;;;;1.65;79.57;100314.01;106569;1274;24333;-57
2023/02/23 01:41:53;;;;;;;;;;;;;;;1.64;79.62;100311.80;106570;1278;24199;-56
2023/02/23 01:44:39;;;;;;;;;;;;;;;1.64;79.78;100305.84;106634;1273;24821;-56
2023/02/23 01:47:09;;;;;;;;;;;;;;;1.66;79.73;100304.39;106548;1279;22790;-57
2023/02/23 01:49:39;;;;;;;;;;;;;;;1.64;79.65;100300.65;106571;1271;22620;-57
2023/02/23 01:52:10;;;;;;;;;;;;;;;1.63;79.61;100300.90;106722;1278;22571;-58
2023/02/23 01:54:43;;;;;;;;;;;;;;;1.61;79.70;100298.34;106661;1278;22517;-57
2023/02/23 01:57:14;;;;;;;;;;;;;;;1.59;79.68;100296.55;106591;1278;22607;-55
2023/02/23 01:59:45;;;;;;;;;;;;;;;1.56;79.61;100293.46;106498;1275;22524;-57
2023/02/23 02:02:16;;;;;;;;;;;;;;;1.51;79.63;100295.34;106604;1279;27607;-57
2023/02/23 02:04:45;;;;;;;;;;;;;;;1.48;79.61;100294.77;106529;1272;22721;-57
2023/02/23 02:07:16;;;;;;;;;;;;;;;1.47;79.78;100295.26;106496;1265;24250;-56
2023/02/23 02:10:38;;;;;;;;;;;;;;;1.47;79.95;100290.06;106691;1278;22527;-56
2023/02/23 02:12:38;;;;;;;;;;;;;;;1.45;80.00;100284.43;106606;1278;22638;-58
2023/02/23 02:15:15;;;;;;;;;;;;;;;1.44;79.89;100282.64;106645;1278;22579;-58
2023/02/23 02:17:52;;;;;;;;;;;;;;;1.41;79.88;100282.77;106563;1274;24222;-56
2023/02/23 02:20:32;;;;;;;;;;;;;;;1.40;80.05;100281.61;106655;1278;22507;-56
2023/02/23 02:23:12;;;;;;;;;;;;;;;1.39;79.92;100280.35;106707;1274;23795;-56
2023/02/23 02:25:49;;;;;;;;;;;;;;;1.36;80.04;100282.44;106579;1268;24247;-54
2023/02/23 02:28:38;;;;;;;;;;;;;;;1.34;80.19;100280.36;106667;1272;26569;-57
2023/02/23 02:31:20;;;;;;;;;;;;;;;1.34;80.17;100274.70;106268;1282;22634;-59
2023/02/23 02:34:14;;;;;;;;;;;;;;;1.35;80.25;100276.11;106377;1282;26077;-55
2023/02/23 02:37:03;;;;;;;;;;;;;;;1.33;80.25;100275.03;106173;1282;24962;-55
2023/02/23 02:39:39;;;;;;;;;;;;;;;1.31;80.31;100276.55;106263;1281;25241;-57
2023/02/23 02:42:16;;;;;;;;;;;;;;;1.30;80.19;100274.62;106259;1283;24212;-59
2023/02/23 02:44:50;;;;;;;;;;;;;;;1.30;80.43;100272.17;106278;1276;25385;-55
2023/02/23 02:47:25;;;;;;;;;;;;;;;1.28;80.56;100273.38;106187;1280;23032;-57
2023/02/23 02:49:59;;;;;;;;;;;;;;;1.27;80.45;100273.45;106214;1283;22524;-58
2023/02/23 02:52:32;;;;;;;;;;;;;;;1.24;80.54;100275.55;106152;1278;26583;-56
2023/02/23 02:55:08;;;;;;;;;;;;;;;1.25;80.63;100274.67;106315;1264;24780;-57
2023/02/23 02:57:37;;;;;;;;;;;;;;;1.24;80.49;100276.42;106083;1282;22685;-56
2023/02/23 04:18:45;;;;;;;;;;;;;;;0.92;82.53;100257.31;106466;1277;24247;-57
2023/02/23 04:21:14;;;;;;;;;;;;;;;0.92;82.61;100258.11;106495;1262;25382;-55
2023/02/23 04:23:44;;;;;;;;;;;;;;;0.93;82.69;100262.58;106507;1278;24218;-58
2023/02/23 04:26:13;;;;;;;;;;;;;;;0.93;82.63;100262.65;106477;1278;26730;-59
2023/02/23 04:28:42;;;;;;;;;;;;;;;0.94;82.79;100267.97;106509;1268;24230;-57
2023/02/23 04:31:11;;;;;;;;;;;;;;;0.93;82.73;100266.02;106491;1278;22528;-54
2023/02/23 04:33:40;;;;;;;;;;;;;;;0.92;82.73;100264.30;106546;1278;22534;-57
2023/02/23 04:36:09;;;;;;;;;;;;;;;0.93;82.88;100266.04;106453;1278;22515;-56
2023/02/23 04:38:39;;;;;;;;;;;;;;;0.93;82.76;100263.74;106487;1265;24341;-57
2023/02/23 04:41:08;;;;;;;;;;;;;;;0.92;82.89;100263.05;106532;1263;22569;-59
2023/02/23 04:43:37;;;;;;;;;;;;;;;0.92;82.96;100263.76;106464;1278;22608;-55
2023/02/23 04:46:07;;;;;;;;;;;;;;;0.94;82.89;100257.69;106415;1278;24219;-57
2023/02/23 04:48:36;;;;;;;;;;;;;;;0.94;82.99;100257.99;106675;1278;24493;-57
2023/02/23 04:51:06;;;;;;;;;;;;;;;0.94;83.17;100259.48;106534;1273;24141;-57
2023/02/23 04:53:35;;;;;;;;;;;;;;;0.94;83.18;100255.73;106678;1278;24241;-57
2023/02/23 04:56:05;;;;;;;;;;;;;;;0.93;83.18;100252.21;106557;1276;22516;-56
2023/02/23 04:58:34;;;;;;;;;;;;;;;0.94;83.36;100250.54;106512;1278;25309;-55
2023/02/23 05:01:08;;;;;;;;;;;;;;;0.95;83.33;100249.66;106494;1278;24307;-56
2023/02/23 05:03:37;;;;;;;;;;;;;;;0.97;83.40;100246.25;106577;1278;22471;-56
2023/02/23 05:06:07;;;;;;;;;;;;;;;0.97;83.35;100246.34;106533;1278;25295;-57
2023/02/23 05:08:36;;;;;;;;;;;;;;;0.96;83.28;100249.57;106545;1272;23435;-58
2023/02/23 05:11:05;;;;;;;;;;;;;;;0.97;83.44;100244.38;106609;1278;22558;-57
2023/02/23 05:13:35;;;;;;;;;;;;;;;0.97;83.45;100240.84;106835;1274;22679;-54
2023/02/23 05:16:05;;;;;;;;;;;;;;;0.95;83.41;100238.50;106631;1278;24258;-58
2023/02/23 05:18:34;;;;;;;;;;;;;;;0.94;83.47;100240.02;106585;1278;23934;-56
2023/02/23 05:21:05;;;;;;;;;;;;;;;0.93;83.59;100239.33;106542;1271;24184;-56
2023/02/23 05:23:35;;;;;;;;;;;;;;;0.92;83.60;100240.27;106609;1268;22537;-59
2023/02/23 05:26:05;;;;;;;;;;;;;;;0.91;83.57;100242.56;106583;1278;26523;-55
2023/02/23 05:28:35;;;;;;;;;;;;;;;0.90;83.60;100238.19;106482;1275;25367;-56
2023/02/23 05:31:05;;;;;;;;;;;;;;;0.89;83.57;100234.26;106579;1272;25425;-58
2023/02/23 05:33:41;;;;;;;;;;;;;;;0.90;83.56;100231.67;106856;1278;26552;-55
2023/02/23 05:36:11;;;;;;;;;;;;;;;0.87;83.62;100232.09;106763;1278;22843;-54
2023/02/23 05:38:40;;;;;;;;;;;;;;;0.86;83.60;100230.46;106717;1278;22514;-57
2023/02/23 05:41:10;;;;;;;;;;;;;;;0.83;83.72;100233.50;106611;1278;22517;-58
2023/02/23 05:43:39;;;;;;;;;;;;;;;0.79;83.81;100236.45;106533;1274;22512;-58
2023/02/23 05:46:09;;;;;;;;;;;;;;;0.79;83.83;100240.30;108150;1278;24392;-58
2023/02/23 05:48:38;;;;;;;;;;;;;;;0.79;83.93;100241.86;106631;1278;24298;-57
2023/02/23 05:51:09;;;;;;;;;;;;;;;0.79;83.85;100241.63;106615;1278;22525;-58
2023/02/23 05:53:38;;;;;;;;;;;;;;;0.78;84.02;100238.83;106703;1278;22961;-60
2023/02/23 05:56:09;;;;;;;;;;;;;;;0.81;83.99;100241.13;106583;1278;22567;-58
2023/02/23 05:58:38;;;;;;;;;;;;;;;0.80;83.97;100241.23;109603;1273;22757;-57
2023/02/23 06:01:07;;;;;;;;;;;;;;;0.80;83.98;100244.05;106896;1274;22471;-56
2023/02/23 06:03:36;;;;;;;;;;;;;;;0.78;84.02;100243.38;106796;1278;22566;-55
2023/02/23 06:06:06;;;;;;;;;;;;;;;0.76;84.07;100246.22;106850;1273;22514;-57
2023/02/23 06:08:35;;;;;;;;;;;;;;;0.75;84.12;100244.04;107001;1277;24215;-57
2023/02/23 06:11:05;;;;;;;;;;;;;;;0.73;84.18;100241.55;106732;1278;22632;-57
2023/02/23 06:13:34;;;;;;;;;;;;;;;0.72;84.30;100245.39;106769;1276;22522;-58
2023/02/23 06:16:04;;;;;;;;;;;;;;;0.72;84.37;100244.92;106787;1278;22538;-59
2023/02/23 06:18:33;;;;;;;;;;;;;;;0.72;84.50;100247.69;106797;1278;22514;-55
2023/02/23 06:21:03;;;;;;;;;;;;;;;0.72;84.64;100247.46;106781;1275;24186;-57
2023/02/23 06:23:33;;;;;;;;;;;;;;;0.72;84.61;100250.42;106943;1271;22542;-58
2023/02/23 06:26:02;;;;;;;;;;;;;;;0.72;84.78;100247.27;106756;1278;25414;-56
2023/02/23 06:28:31;;;;;;;;;;;;;;;0.72;84.75;100250.43;106785;1273;22597;-57
2023/02/23 06:31:00;;;;;;;;;;;;;;;0.73;84.87;100245.08;106903;1278;22499;-56
2023/02/23 06:33:29;;;;;;;;;;;;;;;0.75;85.00;100247.42;106735;1278;22783;-54
2023/02/23 06:35:58;;;;;;;;;;;;;;;0.76;84.97;100249.36;106970;1278;22663;-59
2023/02/23 06:38:28;;;;;;;;;;;;;;;0.77;85.16;100246.29;106847;1276;23185;-58
2023/02/23 06:40:57;;;;;;;;;;;;;;;0.79;85.11;100247.36;106825;1274;24301;-56
2023/02/23 06:43:27;;;;;;;;;;;;;;;0.83;85.26;100246.84;106863;1278;25445;-58
2023/02/23 06:45:56;;;;;;;;;;;;;;;0.86;85.21;100245.94;106883;1278;23898;-56
2023/02/23 06:48:26;;;;;;;;;;;;;;;0.87;85.34;100245.52;106754;1278;24423;-59
2023/02/23 06:50:57;;;;;;;;;;;;;;;0.89;85.35;100245.88;106841;1273;24345;-57
2023/02/23 06:53:27;;;;;;;;;;;;;;;0.91;85.49;100245.32;106864;1278;25290;-58
2023/02/23 06:55:56;;;;;;;;;;;;;;;0.92;85.58;100244.45;106722;1278;26520;-57
2023/02/23 06:58:25;;;;;;;;;;;;;;;0.96;85.63;100242.52;106836;1272;22533;-54
2023/02/23 07:00:57;;;;;;;;;;;;;;;0.98;85.64;100245.14;106956;1278;22644;-56
2023/02/23 07:03:27;;;;;;;;;;;;;;;1.00;85.70;100243.61;106887;1276;22516;-55
2023/02/23 07:05:56;;;;;;;;;;;;;;;1.03;85.73;100243.89;106858;1274;23889;-57
2023/02/23 07:08:26;;;;;;;;;;;;;;;1.07;85.75;100244.92;107015;1275;24224;-57
2023/02/23 07:10:57;;;;;;;;;;;;;;;1.10;85.78;100246.30;106861;1278;22590;-54
2023/02/23 07:13:26;;;;;;;;;;;;;;;1.14;85.84;100246.40;107124;1264;22566;-57
2023/02/23 07:15:58;;;;;;;;;;;;;;;1.17;85.88;100244.33;107145;1278;22566;-58
2023/02/23 07:18:27;;;;;;;;;;;;;;;1.20;85.92;100248.20;107084;1274;22759;-57
2023/02/23 07:20:56;;;;;;;;;;;;;;;1.23;85.90;100250.17;106843;1278;22514;-56
2023/02/23 07:23:26;;;;;;;;;;;;;;;1.28;85.94;100246.43;106872;1278;22642;-54
2023/02/23 07:25:57;;;;;;;;;;;;;;;1.32;85.99;100242.98;106858;1275;22498;-55
2023/02/23 07:28:27;;;;;;;;;;;;;;;1.37;85.88;100238.11;106911;1278;25539;-57
2023/02/23 07:30:57;;;;;;;;;;;;;;;1.42;85.90;100235.36;106896;1278;25954;-59
2023/02/23 07:33:26;;;;;;;;;;;;;;;1.46;85.88;100235.45;107043;1276;22589;-54
2023/02/23 07:35:56;;;;;;;;;;;;;;;1.51;85.95;100240.23;106939;1278;22531;-57
2023/02/23 07:38:25;;;;;;;;;;;;;;;1.55;85.90;100237.75;106828;1276;25431;-58
2023/02/23 07:40:54;;;;;;;;;;;;;;;1.59;85.96;100239.64;106894;1276;25399;-55
2023/02/23 07:43:24;;;;;;;;;;;;;;;1.61;85.96;100240.70;106901;1278;22501;-56
2023/02/23 07:45:53;;;;;;;;;;;;;;;1.65;85.95;100240.80;106894;1278;26648;-54
2023/02/23 07:48:22;;;;;;;;;;;;;;;1.69;85.91;100234.13;106884;1277;22504;-57
2023/02/23 07:50:51;;;;;;;;;;;;;;;1.72;85.87;100235.11;106829;1278;22629;-58
2023/02/23 07:53:20;;;;;;;;;;;;;;;1.75;85.95;100229.31;107049;1278;22555;-56
2023/02/23 07:55:56;;;;;;;;;;;;;;;1.78;85.84;100227.61;106844;1275;22447;-55
2023/02/23 07:58:26;;;;;;;;;;;;;;;1.81;85.93;100226.28;106921;1276;25407;-57
2023/02/23 08:00:55;;;;;;;;;;;;;;;1.86;85.92;100226.21;106906;1278;22512;-57
2023/02/23 08:03:25;;;;;;;;;;;;;;;1.89;85.86;100219.70;107099;1274;22570;-54
2023/02/23 08:05:54;;;;;;;;;;;;;;;1.94;86.02;100219.05;106952;1276;22452;-58
2023/02/23 08:08:24;;;;;;;;;;;;;;;1.98;85.86;100218.20;106864;1278;22646;-54
2023/02/23 08:10:59;;;;;;;;;;;;;;;2.02;85.86;100215.77;106791;1276;23788;-54
2023/02/23 08:13:28;;;;;;;;;;;;;;;2.07;85.84;100217.70;106933;1272;24367;-57
2023/02/23 08:15:58;;;;;;;;;;;;;;;2.14;85.88;100214.83;106977;1267;25226;-56
2023/02/23 08:18:27;;;;;;;;;;;;;;;2.20;86.02;100215.20;107152;1272;22514;-57
2023/02/23 08:20:59;;;;;;;;;;;;;;;2.25;85.76;100216.09;106885;1276;22517;-57
2023/02/23 08:23:31;;;;;;;;;;;;;;;2.32;85.75;100217.79;107024;1278;22518;-57
2023/02/23 08:26:01;;;;;;;;;;;;;;;2.37;85.75;100215.39;107056;1278;24382;-56
2023/02/23 08:28:30;;;;;;;;;;;;;;;2.43;85.81;100217.95;106868;1278;22518;-58
2023/02/23 08:31:00;;;;;;;;;;;;;;;2.50;85.68;100219.48;106803;1278;22516;-58
2023/02/23 08:33:30;;;;;;;;;;;;;;;2.55;85.74;100219.52;106947;1278;22510;-57
2023/02/23 08:36:01;;;;;;;;;;;;;;;2.60;85.68;100220.36;107097;1277;25342;-55
2023/02/23 08:38:31;;;;;;;;;;;;;;;2.66;85.60;100217.64;106979;1274;25867;-58
2023/02/23 08:41:01;;;;;;;;;;;;;;;2.71;85.59;100212.71;106938;1278;24222;-57
2023/02/23 08:43:30;;;;;;;;;;;;;;;2.78;85.73;100212.33;106941;1276;22520;-57
2023/02/23 08:46:00;;;;;;;;;;;;;;;2.87;85.77;100210.89;106948;1278;22522;-57
2023/02/23 08:48:29;;;;;;;;;;;;;;;2.95;85.72;100208.58;106888;1278;22675;-56
2023/02/23 08:50:59;;;;;;;;;;;;;;;3.03;85.66;100209.65;106899;1278;22786;-54
2023/02/23 08:53:29;;;;;;;;;;;;;;;3.11;85.70;100209.32;106923;1278;22509;-56
2023/02/23 08:55:59;;;;;;;;;;;;;;;3.19;85.61;100210.85;106884;1278;186602;-55
2023/02/23 08:58:30;;;;;;;;;;;;;;;3.28;85.52;100207.09;106929;1264;22516;-57
2023/02/23 09:01:00;;;;;;;;;;;;;;;3.37;85.41;100206.81;107046;1278;22638;-55
2023/02/23 09:03:30;;;;;;;;;;;;;;;3.44;85.17;100204.65;107255;1276;25945;-56
2023/02/23 09:06:07;;;;;;;;;;;;;;;3.51;85.29;100200.07;106912;1276;26532;-57
2023/02/23 09:08:37;;;;;;;;;;;;;;;3.60;85.25;100202.21;106842;1278;24533;-54
2023/02/23 09:11:06;;;;;;;;;;;;;;;3.67;85.21;100204.01;106880;1278;23120;-57
2023/02/23 09:13:36;;;;;;;;;;;;;;;3.76;85.09;100204.00;106932;1277;25519;-57
2023/02/23 09:16:06;;;;;;;;;;;;;;;3.83;84.89;100199.87;107126;1278;24249;-57
2023/02/23 09:18:36;;;;;;;;;;;;;;;3.89;84.90;100199.25;107153;1278;24243;-59
2023/02/23 09:21:09;;;;;;;;;;;;;;;3.95;84.95;100194.34;107276;1276;22511;-56
2023/02/23 09:23:39;;;;;;;;;;;;;;;4.02;84.83;100191.94;106949;1268;24207;-56
2023/02/23 09:26:08;;;;;;;;;;;;;;;4.08;84.85;100184.98;106991;1278;22517;-56
2023/02/23 09:28:39;;;;;;;;;;;;;;;4.18;84.68;100186.88;106885;1278;25375;-57
2023/02/23 09:31:10;;;;;;;;;;;;;;;4.27;84.71;100181.96;106946;1278;22581;-59
2023/02/23 09:33:40;;;;;;;;;;;;;;;4.36;84.64;100185.63;106986;1278;22473;-57
2023/02/23 09:36:11;;;;;;;;;;;;;;;4.46;84.74;100177.69;107022;1278;22530;-57
2023/02/23 09:38:40;;;;;;;;;;;;;;;4.56;84.54;100177.31;107024;1273;25961;-57
2023/02/23 09:41:23;;;;;;;;;;;;;;;4.64;84.28;100177.62;107027;1264;22724;-59
2023/02/23 09:43:56;;;;;;;;;;;;;;;4.74;84.34;100175.35;106958;1278;23150;-59
2023/02/23 09:46:30;;;;;;;;;;;;;;;4.80;84.19;100175.00;107076;1274;25321;-56
2023/02/23 09:49:00;;;;;;;;;;;;;;;4.86;84.05;100171.17;106999;1278;22511;-57
2023/02/23 09:51:31;;;;;;;;;;;;;;;4.93;83.95;100173.02;106878;1268;22545;-56
2023/02/23 09:54:02;;;;;;;;;;;;;;;5.00;83.80;100172.58;106913;1273;22511;-57
2023/02/23 09:56:34;;;;;;;;;;;;;;;5.04;83.80;100171.74;106822;1274;22778;-55
2023/02/23 09:59:04;;;;;;;;;;;;;;;5.10;83.69;100170.77;106938;1264;22531;-57
2023/02/23 10:01:44;;;;;;;;;;;;;;;5.16;83.67;100172.92;106889;1264;24201;-58
2023/02/23 10:04:17;;;;;;;;;;;;;;;5.22;83.52;100172.83;106850;1278;22648;-54
2023/02/23 10:06:50;;;;;;;;;;;;;;;5.26;83.31;100172.95;106927;1278;24311;-56
2023/02/23 10:09:24;;;;;;;;;;;;;;;5.28;83.28;100172.69;106895;1278;22656;-57
2023/02/23 10:11:59;;;;;;;;;;;;;;;5.33;83.11;100165.91;107018;1276;25890;-56
2023/02/23 10:14:35;;;;;;;;;;;;;;;5.37;83.23;100163.63;107038;1273;22482;-54
2023/02/23 10:17:14;;;;;;;;;;;;;;;5.43;83.27;100163.60;106939;1274;25982;-57
2023/02/23 10:19:48;;;;;;;;;;;;;;;5.49;83.29;100161.64;107019;1269;22641;-56
2023/02/23 10:22:19;;;;;;;;;;;;;;;5.54;83.04;100162.05;106977;1275;24200;-55
2023/02/23 10:24:51;;;;;;;;;;;;;;;5.59;83.06;100158.84;106932;1278;25313;-57
2023/02/23 10:27:23;;;;;;;;;;;;;;;5.66;82.87;100155.77;106916;1272;22512;-62
2023/02/23 10:29:55;;;;;;;;;;;;;;;5.74;82.90;100157.63;106843;1277;26539;-68
2023/02/23 10:32:27;;;;;;;;;;;;;;;5.83;82.68;100150.53;106924;1274;22510;-62
2023/02/23 10:34:57;;;;;;;;;;;;;;;5.93;82.66;100148.70;106595;1278;24269;-63
2023/02/23 10:37:26;;;;;;;;;;;;;;;6.01;82.44;100144.36;106496;1277;22524;-67
2023/02/23 10:39:56;;;;;;;;;;;;;;;6.05;82.07;100136.77;106430;1278;22516;-57
2023/02/23 10:42:28;;;;;;;;;;;;;;;6.07;82.12;100139.63;106691;1273;24360;-63
2023/02/23 10:44:58;;;;;;;;;;;;;;;6.12;82.03;100135.23;106489;1278;25293;-57
2023/02/23 10:47:29;;;;;;;;;;;;;;;6.16;81.79;100137.26;106442;1278;22648;-59
2023/02/23 10:49:59;;;;;;;;;;;;;;;6.19;81.70;100133.98;106376;1277;25320;-57
2023/02/23 10:52:30;;;;;;;;;;;;;;;6.19;81.56;100124.84;106453;1264;22511;-58
2023/02/23 10:55:03;;;;;;;;;;;;;;;6.22;81.42;100124.52;106594;1278;22521;-58
2023/02/23 10:57:36;;;;;;;;;;;;;;;6.23;81.41;100122.31;106440;1278;24338;-57
2023/02/23 11:00:26;;;;;;;;;;;;;;;6.27;81.44;100121.31;106420;1278;22515;-56
2023/02/23 11:02:57;;;;;;;;;;;;;;;6.32;81.58;100116.95;106392;1278;22525;-58
2023/02/23 11:05:32;;;;;;;;;;;;;;;6.35;81.52;100115.30;106605;1264;25236;-56
2023/02/23 11:08:18;;;;;;;;;;;;;;;6.38;81.40;100111.26;106564;1273;26648;-58
2023/02/23 11:10:56;;;;;;;;;;;;;;;6.40;81.30;100106.30;106590;1276;22990;-61
2023/02/23 11:13:26;;;;;;;;;;;;;;;6.44;81.07;100101.09;106423;1273;22534;-57
2023/02/23 11:16:00;;;;;;;;;;;;;;;6.48;81.03;100099.51;106447;1266;22518;-59
2023/02/23 11:18:31;;;;;;;;;;;;;;;6.52;80.96;100098.08;106589;1272;22565;-58
2023/02/23 11:21:00;;;;;;;;;;;;;;;6.57;80.98;100096.49;106479;1278;22520;-58
2023/02/23 11:23:34;;;;;;;;;;;;;;;6.62;81.08;100094.14;106585;1264;22644;-57
2023/02/23 11:26:04;;;;;;;;;;;;;;;6.67;81.02;100090.16;106541;1263;22516;-57
2023/02/23 11:28:36;;;;;;;;;;;;;;;6.72;80.80;100086.67;106446;1263;22515;-55
2023/02/23 11:31:14;;;;;;;;;;;;;;;6.77;80.62;100076.77;106402;1272;25423;-58
2023/02/23 11:33:45;;;;;;;;;;;;;;;6.82;80.66;100076.17;106387;1278;23939;-57
2023/02/23 11:36:17;;;;;;;;;;;;;;;6.86;80.71;100074.17;106515;1276;22774;-57
2023/02/23 11:38:47;;;;;;;;;;;;;;;6.92;80.81;100069.23;106480;1276;25590;-56
2023/02/23 11:41:21;;;;;;;;;;;;;;;6.99;80.75;100061.33;106464;1263;22520;-56
2023/02/23 11:43:51;;;;;;;;;;;;;;;7.07;80.62;100061.47;106310;1274;22648;-56
2023/02/23 11:46:21;;;;;;;;;;;;;;;7.13;80.38;100053.83;106405;1272;22845;-56
2023/02/23 11:48:54;;;;;;;;;;;;;;;7.21;80.18;100053.53;106439;1278;26517;-57
2023/02/23 11:51:25;;;;;;;;;;;;;;;7.30;80.45;100056.62;106512;1263;22523;-58
2023/02/23 11:53:54;;;;;;;;;;;;;;;7.38;80.32;100053.36;106446;1263;22514;-57
2023/02/23 11:56:24;;;;;;;;;;;;;;;7.45;80.21;100047.16;106395;1278;22662;-58
2023/02/23 11:58:57;;;;;;;;;;;;;;;7.53;80.00;100044.14;106391;1264;22555;-57
2023/02/23 12:01:38;;;;;;;;;;;;;;;7.62;80.14;100040.32;106436;1272;24341;-58
2023/02/23 12:04:08;;;;;;;;;;;;;;;7.71;80.00;100039.54;106486;1271;24234;-56
2023/02/23 12:06:38;;;;;;;;;;;;;;;7.79;79.81;100033.81;106541;1278;22537;-58
2023/02/23 12:09:12;;;;;;;;;;;;;;;7.89;79.82;100036.65;106436;1276;24289;-55
2023/02/23 12:11:46;;;;;;;;;;;;;;;7.96;79.63;100034.96;106551;1271;25291;-57
2023/02/23 12:14:20;;;;;;;;;;;;;;;8.04;79.62;100033.09;106355;1278;22560;-56
2023/02/23 12:16:52;;;;;;;;;;;;;;;8.11;79.67;100028.89;106288;1271;22526;-56
2023/02/23 12:19:24;;;;;;;;;;;;;;;8.19;79.58;100025.27;106361;1272;22592;-57
2023/02/23 12:21:58;;;;;;;;;;;;;;;8.27;79.73;100026.10;106316;1278;22544;-58
2023/02/23 12:24:31;;;;;;;;;;;;;;;8.36;79.71;100021.53;106603;1271;23991;-55
2023/02/23 12:27:05;;;;;;;;;;;;;;;8.45;79.15;100020.08;106539;1278;24291;-56
2023/02/23 12:29:39;;;;;;;;;;;;;;;8.54;79.20;100015.06;106406;1267;22533;-57
2023/02/23 12:32:12;;;;;;;;;;;;;;;8.63;79.17;100013.48;106494;1264;26551;-56
2023/02/23 12:34:44;;;;;;;;;;;;;;;8.71;78.98;100007.84;106489;1276;22563;-57
2023/02/23 12:37:21;;;;;;;;;;;;;;;8.78;78.92;100001.98;106431;1264;25509;-57
2023/02/23 12:39:54;;;;;;;;;;;;;;;8.86;78.84;99999.62;106431;1278;25250;-57
2023/02/23 12:42:26;;;;;;;;;;;;;;;8.92;78.60;100001.00;106491;1278;22652;-58
2023/02/23 12:44:57;;;;;;;;;;;;;;;8.97;78.35;99998.75;106447;1265;24280;-58
2023/02/23 12:47:32;;;;;;;;;;;;;;;9.02;78.48;99996.67;106577;1278;22694;-57
2023/02/23 12:50:11;;;;;;;;;;;;;;;9.07;78.40;99994.36;106541;1272;24280;-58
2023/02/23 12:52:45;;;;;;;;;;;;;;;9.13;78.30;99993.04;106430;1267;22560;-56
2023/02/23 12:55:16;;;;;;;;;;;;;;;9.17;78.00;99991.41;106400;1264;22521;-56
2023/02/23 12:57:48;;;;;;;;;;;;;;;9.19;77.91;99985.64;106576;1278;24379;-58
2023/02/23 13:00:32;;;;;;;;;;;;;;;9.23;78.02;99983.19;106454;1264;24360;-59
2023/02/23 13:03:14;;;;;;;;;;;;;;;9.28;77.81;99979.27;106473;1275;25281;-58
2023/02/23 13:05:47;;;;;;;;;;;;;;;9.33;77.84;99973.85;106578;1264;22517;-59
2023/02/23 13:08:26;;;;;;;;;;;;;;;9.38;77.74;99974.46;106609;1264;22621;-57
2023/02/23 13:11:02;;;;;;;;;;;;;;;9.44;77.48;99974.94;106526;1264;25378;-58
2023/02/23 13:13:34;;;;;;;;;;;;;;;9.50;77.41;99970.85;106354;1264;22515;-55
2023/02/23 13:16:08;;;;;;;;;;;;;;;9.56;77.50;99966.30;106417;1278;26518;-55
2023/02/23 13:18:41;;;;;;;;;;;;;;;9.62;77.46;99965.04;106522;1274;22514;-58
2023/02/23 13:21:16;;;;;;;;;;;;;;;9.66;77.20;99963.55;106416;1276;22520;-55
2023/02/23 13:23:53;;;;;;;;;;;;;;;9.70;77.33;99960.68;106608;1274;22514;-59
2023/02/23 13:26:28;;;;;;;;;;;;;;;9.75;77.29;99961.31;106666;1272;22513;-58
2023/02/23 13:29:00;;;;;;;;;;;;;;;9.80;77.02;99953.96;106649;1271;24533;-59
2023/02/23 13:31:32;;;;;;;;;;;;;;;9.86;76.88;99958.83;106507;1264;25416;-55
2023/02/23 13:34:03;;;;;;;;;;;;;;;9.90;76.66;99955.95;106467;1278;22518;-59
2023/02/23 13:36:33;;;;;;;;;;;;;;;9.95;76.88;99951.98;106354;1278;22544;-57
2023/02/23 13:39:19;;;;;;;;;;;;;;;10.00;76.63;99946.25;106394;1278;22509;-61
2023/02/23 13:42:10;;;;;;;;;;;;;;;10.04;76.39;99948.49;106218;1276;22693;-56
2023/02/23 13:44:43;;;;;;;;;;;;;;;10.09;76.28;99948.38;106123;1276;22520;-56
2023/02/23 13:47:17;;;;;;;;;;;;;;;10.13;76.18;99946.52;106109;1268;22731;-55
2023/02/23 13:49:52;;;;;;;;;;;;;;;10.16;76.14;99949.56;106369;1282;25346;-56
2023/02/23 13:52:23;;;;;;;;;;;;;;;10.18;75.92;99944.17;106342;1282;22794;-58
2023/02/23 13:54:55;;;;;;;;;;;;;;;10.21;76.05;99944.17;106032;1274;22634;-58
2023/02/23 13:57:26;;;;;;;;;;;;;;;10.24;75.83;99944.31;106223;1275;25432;-58
2023/02/23 13:59:55;;;;;;;;;;;;;;;10.27;75.79;99943.86;106375;1268;25305;-59
2023/02/23 14:02:33;;;;;;;;;;;;;;;10.31;75.79;99940.41;106221;1277;24413;-57
2023/02/23 14:05:05;;;;;;;;;;;;;;;10.34;75.20;99944.23;106334;1280;22518;-57
2023/02/23 14:07:39;;;;;;;;;;;;;;;10.35;75.39;99940.23;106164;1275;22601;-59
2023/02/23 14:10:15;;;;;;;;;;;;;;;10.39;75.62;99936.37;106099;1282;22530;-58
2023/02/23 14:13:04;;;;;;;;;;;;;;;10.41;75.52;99934.95;106135;1282;22546;-58
2023/02/23 14:15:43;;;;;;;;;;;;;;;10.43;75.52;99930.70;106144;1282;24537;-58
2023/02/23 14:18:29;;;;;;;;;;;;;;;10.45;75.33;99932.72;106127;1277;24368;-57
2023/02/23 14:21:03;;;;;;;;;;;;;;;10.47;75.27;99927.98;106434;1271;22641;-59